createdAt,value
2023-06-12T00:00:40.451Z,59.91
2023-06-12T00:05:46.822Z,60.95
2023-06-12T00:10:50.359Z,61.86
2023-06-12T00:15:54.651Z,62.03
2023-06-12T00:20:59.598Z,61.50
2023-06-12T00:26:04.286Z,61.61
2023-06-12T00:31:07.798Z,62.55
2023-06-12T00:36:14.067Z,62.87
2023-06-12T00:41:17.499Z,62.53
2023-06-12T00:46:21.868Z,62.71
2023-06-12T00:51:29.667Z,62.69
2023-06-12T00:56:33.292Z,62.67
2023-06-12T01:01:37.556Z,63.34
2023-06-12T01:06:50.085Z,63.70
2023-06-12T01:11:55.024Z,63.24
2023-06-12T01:16:59.984Z,63.75
2023-06-12T01:22:11.239Z,63.43
2023-06-12T01:27:44.751Z,63.72
2023-06-12T01:32:52.622Z,63.90
2023-06-12T01:38:06.187Z,63.75
2023-06-12T01:43:09.704Z,63.28
2023-06-12T01:48:15.517Z,63.13
2023-06-12T01:53:18.988Z,63.24
2023-06-12T01:58:22.725Z,62.73
2023-06-12T02:03:28.072Z,63.53
2023-06-12T02:08:31.641Z,62.73
2023-06-12T02:13:35.330Z,62.51
2023-06-12T02:18:41.614Z,62.65
2023-06-12T02:24:05.835Z,61.56
2023-06-12T02:29:11.007Z,62.04
2023-06-12T02:34:16.048Z,61.81
2023-06-12T02:39:20.003Z,61.36
2023-06-12T02:44:23.483Z,61.31
2023-06-12T02:49:30.785Z,61.14
2023-06-12T02:54:35.002Z,59.89
2023-06-12T02:59:39.146Z,59.79
2023-06-12T03:04:44.099Z,59.84
2023-06-12T03:09:48.050Z,58.89
2023-06-12T03:14:52.321Z,58.72
2023-06-12T03:19:57.331Z,58.85
2023-06-12T03:25:01.035Z,57.90
2023-06-12T03:30:04.719Z,57.91
2023-06-12T03:35:11.709Z,57.48
2023-06-12T03:40:15.898Z,57.46
2023-06-12T03:45:19.426Z,57.09
2023-06-12T03:50:24.964Z,56.62
2023-06-12T03:55:28.959Z,56.17
2023-06-12T04:00:32.450Z,56.03
2023-06-12T04:05:37.474Z,55.44
2023-06-12T04:10:41.829Z,54.96
2023-06-12T04:15:45.424Z,54.69
2023-06-12T04:20:50.654Z,54.24
2023-06-12T04:25:55.448Z,53.71
2023-06-12T04:30:59.378Z,53.12
2023-06-12T04:36:05.187Z,52.94
2023-06-12T04:41:11.263Z,52.13
2023-06-12T04:46:14.810Z,51.91
2023-06-12T04:51:19.987Z,51.46
2023-06-12T04:56:23.576Z,50.86
2023-06-12T05:01:27.071Z,50.19
2023-06-12T05:06:34.252Z,49.47
2023-06-12T05:11:38.018Z,48.22
2023-06-12T05:16:41.529Z,46.94
2023-06-12T05:21:46.547Z,46.51
2023-06-12T05:26:50.028Z,45.88
2023-06-12T05:31:53.434Z,44.95
2023-06-12T05:36:59.029Z,44.40
2023-06-12T05:42:02.440Z,44.23
2023-06-12T05:47:06.215Z,43.48
2023-06-12T05:52:12.565Z,42.58
2023-06-12T05:57:16.692Z,41.84
2023-06-12T06:02:20.534Z,42.13
2023-06-12T06:07:26.130Z,41.78
2023-06-12T06:12:29.644Z,40.69
2023-06-12T06:17:33.307Z,40.00
2023-06-12T06:22:38.366Z,39.20
2023-06-12T06:27:41.976Z,38.52
2023-06-12T06:32:45.585Z,37.90
2023-06-12T06:37:50.749Z,37.83
2023-06-12T06:42:54.567Z,37.75
2023-06-12T06:47:58.019Z,38.05
2023-06-12T06:53:03.591Z,37.03
2023-06-12T06:58:07.177Z,36.88
2023-06-12T07:03:11.281Z,36.45
2023-06-12T07:08:16.406Z,36.34
2023-06-12T07:13:20.272Z,36.33
2023-06-12T07:18:23.789Z,35.73
2023-06-12T07:23:28.774Z,35.56
2023-06-12T07:28:32.470Z,35.77
2023-06-12T07:33:36.207Z,35.23
2023-06-12T07:38:41.209Z,34.54
2023-06-12T07:43:44.712Z,34.79
2023-06-12T07:48:48.448Z,34.20
2023-06-12T07:53:53.448Z,33.73
2023-06-12T07:58:57.011Z,34.11
2023-06-12T08:04:00.571Z,33.07
2023-06-12T08:09:05.533Z,33.24
2023-06-12T08:14:09.432Z,33.43
2023-06-12T08:19:14.236Z,33.04
2023-06-12T08:24:19.064Z,31.90
2023-06-12T08:29:22.724Z,28.95
2023-06-12T08:34:27.454Z,26.19
2023-06-12T08:39:32.700Z,25.27
2023-06-12T08:44:36.625Z,22.77
2023-06-12T08:49:40.495Z,21.04
2023-06-12T08:54:47.906Z,17.79
2023-06-12T08:59:51.937Z,17.80
2023-06-12T09:05:02.723Z,16.12
2023-06-12T09:10:14.967Z,15.58
2023-06-12T09:15:19.715Z,14.73
2023-06-12T09:20:41.726Z,13.76
2023-06-12T09:26:13.192Z,12.50
2023-06-12T09:31:12.241Z,12.33
2023-06-12T09:36:16.149Z,11.14
2023-06-12T09:41:26.107Z,10.75
2023-06-12T09:46:29.991Z,9.11
2023-06-12T09:51:35.460Z,9.70
2023-06-12T09:56:41.212Z,10.25
2023-06-12T10:01:49.172Z,8.93
2023-06-12T10:06:58.097Z,8.80
2023-06-12T10:12:03.815Z,8.51
2023-06-12T10:17:09.100Z,8.58
2023-06-12T10:22:12.674Z,8.22
2023-06-12T10:27:19.158Z,8.11
2023-06-12T10:32:23.678Z,7.91
2023-06-12T10:37:28.863Z,7.80
2023-06-12T10:42:43.134Z,7.71
2023-06-12T10:48:15.095Z,7.64
2023-06-12T10:53:24.855Z,7.96
2023-06-12T10:58:29.842Z,7.69
2023-06-12T11:03:35.462Z,7.82
2023-06-12T11:08:39.192Z,7.72
2023-06-12T11:13:45.426Z,7.81
2023-06-12T11:18:49.017Z,8.16
2023-06-12T11:23:52.607Z,7.44
2023-06-12T11:28:58.477Z,8.46
2023-06-12T11:34:03.225Z,8.79
2023-06-12T11:44:26.810Z,7.34
2023-06-12T11:49:32.449Z,7.06
2023-06-12T12:00:13.415Z,7.75
2023-06-12T12:05:22.091Z,8.33
2023-06-12T12:10:26.248Z,7.60
2023-06-12T12:15:32.466Z,7.74
2023-06-12T12:20:37.404Z,8.20
2023-06-12T12:25:42.438Z,7.72
2023-06-12T12:30:47.473Z,8.11
2023-06-12T12:35:51.059Z,8.21
2023-06-12T12:40:54.635Z,7.98
2023-06-12T12:45:59.865Z,7.73
2023-06-12T12:51:10.005Z,7.75
2023-06-12T12:56:15.534Z,8.34
2023-06-12T13:01:20.672Z,8.22
2023-06-12T13:06:24.933Z,8.27
2023-06-12T13:11:28.568Z,9.00
2023-06-12T13:16:33.441Z,8.76
2023-06-12T13:21:37.009Z,9.17
2023-06-12T13:26:40.733Z,9.45
2023-06-12T13:31:45.780Z,9.25
2023-06-12T13:36:49.319Z,8.88
2023-06-12T13:41:53.705Z,9.45
2023-06-12T13:46:58.804Z,9.04
2023-06-12T13:52:02.307Z,9.37
2023-06-12T13:57:07.904Z,9.86
2023-06-12T14:02:12.833Z,9.86
2023-06-12T14:07:16.344Z,10.01
2023-06-12T14:12:19.873Z,10.18
2023-06-12T14:17:24.827Z,10.60
2023-06-12T14:22:28.811Z,11.13
2023-06-12T14:27:32.915Z,11.23
2023-06-12T14:32:37.908Z,11.49
2023-06-12T14:37:41.439Z,11.88
2023-06-12T14:42:44.826Z,12.20
2023-06-12T14:47:50.029Z,11.71
2023-06-12T14:52:53.626Z,12.40
2023-06-12T14:57:57.087Z,12.48
2023-06-12T15:03:02.151Z,12.64
2023-06-12T15:08:05.934Z,13.48
2023-06-12T15:13:10.563Z,13.96
2023-06-12T15:18:26.305Z,14.23
2023-06-12T15:23:40.063Z,14.52
2023-06-12T15:28:43.553Z,14.78
2023-06-12T15:33:48.759Z,15.19
2023-06-12T15:38:53.531Z,15.55
2023-06-12T15:43:56.909Z,16.33
2023-06-12T15:49:01.989Z,17.20
2023-06-12T16:49:31.928Z,23.87
2023-06-12T16:54:36.948Z,25.16
2023-06-12T16:59:42.777Z,26.24
2023-06-12T17:04:47.219Z,27.78
2023-06-12T17:09:52.353Z,29.18
2023-06-12T17:14:55.910Z,30.06
2023-06-12T17:19:59.494Z,31.00
2023-06-12T17:25:05.101Z,32.00
2023-06-12T17:30:10.548Z,32.77
2023-06-12T17:35:14.126Z,33.13
2023-06-12T17:40:19.183Z,34.53
2023-06-12T17:45:23.921Z,34.60
2023-06-12T17:50:30.764Z,35.57
2023-06-12T17:55:35.767Z,36.03
2023-06-12T18:00:39.596Z,36.57
2023-06-12T18:05:43.626Z,37.15
2023-06-12T18:10:48.703Z,37.89
2023-06-12T18:15:52.136Z,38.40
2023-06-12T18:20:55.705Z,38.50
2023-06-12T18:26:01.031Z,39.17
2023-06-12T18:31:04.694Z,39.92
2023-06-12T18:36:09.660Z,39.94
2023-06-12T18:41:15.274Z,40.42
2023-06-12T18:46:23.858Z,40.60
2023-06-12T18:51:27.817Z,41.56
2023-06-12T18:56:34.838Z,41.90
2023-06-12T19:01:38.379Z,42.19
2023-06-12T19:06:42.723Z,42.76
2023-06-12T19:11:48.038Z,43.04
2023-06-12T19:16:51.680Z,43.16
2023-06-12T19:21:55.395Z,43.65
2023-06-12T19:27:00.351Z,43.68
2023-06-12T19:32:04.021Z,44.01
2023-06-12T19:37:07.595Z,43.88
2023-06-12T19:42:13.021Z,44.27
2023-06-12T19:47:16.612Z,44.60
2023-06-12T19:52:20.120Z,44.50
2023-06-12T19:57:25.657Z,44.83
2023-06-12T20:02:29.198Z,44.90
2023-06-12T20:07:32.901Z,45.05
2023-06-12T20:12:38.401Z,45.33
2023-06-12T20:17:42.124Z,45.31
2023-06-12T20:22:47.261Z,45.28
2023-06-12T20:27:52.290Z,45.86
2023-06-12T20:32:56.551Z,45.95
2023-06-12T20:38:00.281Z,45.95
2023-06-12T20:43:07.950Z,46.88
2023-06-12T20:48:11.644Z,46.62
2023-06-12T20:53:16.586Z,46.82
2023-06-12T20:58:21.482Z,47.53
2023-06-12T21:03:25.129Z,47.41
2023-06-12T21:08:28.819Z,48.05
2023-06-12T21:13:33.696Z,48.44
2023-06-12T21:18:37.210Z,48.27
2023-06-12T21:23:40.736Z,49.03
2023-06-12T21:28:46.022Z,49.18
2023-06-12T21:33:49.592Z,49.34
2023-06-12T21:38:53.136Z,49.52
2023-06-12T21:43:57.978Z,49.88
2023-06-12T21:49:01.603Z,50.02
2023-06-12T21:54:05.282Z,50.24
2023-06-12T21:59:10.761Z,50.53
2023-06-12T22:04:14.360Z,50.42
2023-06-12T22:09:17.871Z,51.06
2023-06-12T22:21:05.701Z,51.69
2023-06-12T22:26:09.872Z,51.45
2023-06-12T22:31:13.468Z,52.75
2023-06-12T22:36:18.538Z,52.51
2023-06-12T22:41:21.999Z,53.07
2023-06-12T22:46:25.638Z,53.39
2023-06-12T22:51:30.714Z,53.87
2023-06-12T22:56:34.225Z,54.17
2023-06-12T23:01:37.766Z,54.36
2023-06-12T23:06:43.243Z,54.49
2023-06-12T23:11:46.739Z,54.92
2023-06-12T23:16:52.971Z,54.65
2023-06-12T23:21:58.003Z,55.61
2023-06-12T23:27:01.689Z,55.49
2023-06-12T23:32:05.870Z,55.79
2023-06-12T23:37:11.037Z,56.03
2023-06-12T23:42:18.666Z,56.24
2023-06-12T23:47:22.489Z,56.87
2023-06-12T23:52:28.014Z,57.02
2023-06-12T23:57:31.684Z,58.00
